createdAt,value
2017-12-14T00:00:23.919Z,6.07
2017-12-14T00:02:50.672Z,5.22
2017-12-14T00:05:18.059Z,5.78
2017-12-14T00:07:49.262Z,4.82
2017-12-14T00:10:17.522Z,6.45
2017-12-14T00:12:45.899Z,5.65
2017-12-14T00:15:12.888Z,5.18
2017-12-14T00:17:39.615Z,5.37
2017-12-14T00:20:07.990Z,4.75
2017-12-14T00:22:36.853Z,7.25
2017-12-14T00:25:03.181Z,6.25
2017-12-14T00:27:31.115Z,5.40
2017-12-14T00:29:58.282Z,5.57
2017-12-14T00:32:27.405Z,5.95
2017-12-14T00:34:54.944Z,6.65
2017-12-14T00:37:22.705Z,5.43
2017-12-14T00:39:49.439Z,5.22
2017-12-14T00:42:20.925Z,6.00
2017-12-14T00:44:49.455Z,5.35
2017-12-14T00:47:17.857Z,6.20
2017-12-14T00:49:46.132Z,6.60
2017-12-14T00:52:15.280Z,5.70
2017-12-14T00:54:42.879Z,5.32
2017-12-14T00:57:10.678Z,6.60
2017-12-14T00:59:39.242Z,6.20
2017-12-14T01:02:06.989Z,5.12
2017-12-14T01:04:37.454Z,4.28
2017-12-14T01:07:05.604Z,6.45
2017-12-14T01:09:34.684Z,6.78
2017-12-14T01:12:02.306Z,4.70
2017-12-14T01:14:35.205Z,9.63
2017-12-14T01:17:03.394Z,5.93
2017-12-14T01:19:34.883Z,7.20
2017-12-14T01:22:04.301Z,4.28
2017-12-14T01:24:31.259Z,6.32
2017-12-14T01:26:58.694Z,5.70
2017-12-14T01:29:25.415Z,6.40
2017-12-14T01:31:52.580Z,5.07
2017-12-14T01:34:24.703Z,5.60
2017-12-14T01:36:51.948Z,4.62
2017-12-14T01:39:20.409Z,4.87
2017-12-14T01:41:47.124Z,5.53
2017-12-14T01:44:16.027Z,5.72
2017-12-14T01:49:19.194Z,3.95
2017-12-14T01:51:49.284Z,4.75
2017-12-14T01:54:15.982Z,5.57
2017-12-14T01:56:48.098Z,6.82
2017-12-14T02:01:54.949Z,5.87
2017-12-14T02:04:24.131Z,9.13
2017-12-14T02:06:51.692Z,6.97
2017-12-14T02:09:23.556Z,8.52
2017-12-14T02:11:51.793Z,5.00
2017-12-14T02:14:18.556Z,5.10
2017-12-14T02:16:48.481Z,4.20
2017-12-14T02:19:16.452Z,4.93
2017-12-14T02:21:44.521Z,4.55
2017-12-14T02:24:12.273Z,8.90
2017-12-14T02:26:44.105Z,6.25
2017-12-14T02:31:45.113Z,6.62
2017-12-14T02:34:11.851Z,7.70
2017-12-14T02:36:41.714Z,12.25
2017-12-14T02:39:10.681Z,5.93
2017-12-14T02:41:37.735Z,9.90
2017-12-14T02:44:05.298Z,5.15
2017-12-14T02:46:32.820Z,8.82
2017-12-14T02:48:59.533Z,7.37
2017-12-14T02:51:26.984Z,5.93
2017-12-14T02:53:53.676Z,6.30
2017-12-14T02:56:21.771Z,7.45
2017-12-14T03:01:22.149Z,7.05
2017-12-14T03:03:48.847Z,6.43
2017-12-14T03:06:15.595Z,7.97
2017-12-14T03:08:42.996Z,6.78
2017-12-14T03:11:10.575Z,7.22
2017-12-14T03:13:37.980Z,5.15
2017-12-14T03:16:06.348Z,6.12
2017-12-14T03:18:33.825Z,3.40
2017-12-14T03:21:01.735Z,3.33
2017-12-14T03:23:29.061Z,4.68
2017-12-14T03:25:57.833Z,3.45
2017-12-14T03:28:25.420Z,4.55
2017-12-14T03:30:52.181Z,4.75
2017-12-14T03:33:18.907Z,4.62
2017-12-14T03:35:49.921Z,2.55
2017-12-14T03:38:21.964Z,2.60
2017-12-14T03:40:49.864Z,5.12
2017-12-14T03:43:16.580Z,4.53
2017-12-14T03:45:43.313Z,5.53
2017-12-14T03:48:10.039Z,4.30
2017-12-14T03:50:37.219Z,10.77
2017-12-14T03:53:04.740Z,2.92
2017-12-14T03:55:33.689Z,2.65
2017-12-14T03:58:02.551Z,3.60
2017-12-14T04:00:33.205Z,3.87
2017-12-14T04:02:59.969Z,4.45
2017-12-14T04:05:29.548Z,3.20
2017-12-14T04:07:57.462Z,5.30
2017-12-14T04:10:24.711Z,5.87
2017-12-14T04:12:52.331Z,2.28
2017-12-14T04:15:22.859Z,4.78
2017-12-14T04:17:50.162Z,2.85
2017-12-14T04:20:17.378Z,2.65
2017-12-14T04:22:45.052Z,4.82
2017-12-14T04:25:12.220Z,3.53
2017-12-14T04:27:39.301Z,3.08
2017-12-14T04:30:07.480Z,5.65
2017-12-14T04:32:35.699Z,4.85
2017-12-14T04:35:03.713Z,2.28
2017-12-14T04:37:35.701Z,2.45
2017-12-14T04:40:06.115Z,5.75
2017-12-14T04:42:38.759Z,6.30
2017-12-14T04:45:07.659Z,4.40
2017-12-14T04:47:39.119Z,3.15
2017-12-14T04:50:05.814Z,4.43
2017-12-14T04:52:33.320Z,2.37
2017-12-14T04:55:00.040Z,6.12
2017-12-14T04:57:27.028Z,3.37
2017-12-14T04:59:53.754Z,3.22
2017-12-14T05:02:24.664Z,1.52
2017-12-14T05:04:52.699Z,1.48
2017-12-14T05:07:19.632Z,2.65
2017-12-14T05:09:46.339Z,1.20
2017-12-14T05:12:16.301Z,1.20
2017-12-14T05:14:43.520Z,2.40
2017-12-14T05:17:12.837Z,3.05
2017-12-14T05:19:41.657Z,5.05
2017-12-14T05:22:08.356Z,10.63
2017-12-14T05:24:36.500Z,10.85
2017-12-14T05:27:05.299Z,7.65
2017-12-14T05:29:33.977Z,5.37
2017-12-14T05:32:07.243Z,3.20
2017-12-14T05:34:36.371Z,2.10
2017-12-14T05:37:04.816Z,2.08
2017-12-14T05:39:33.130Z,1.70
2017-12-14T05:42:03.370Z,1.92
2017-12-14T05:44:30.140Z,1.90
2017-12-14T05:46:57.772Z,2.62
2017-12-14T05:49:25.805Z,2.03
2017-12-14T05:51:52.560Z,2.15
2017-12-14T05:54:19.759Z,2.50
2017-12-14T05:56:47.369Z,2.67
2017-12-14T05:59:15.189Z,3.12
2017-12-14T06:01:41.918Z,3.20
2017-12-14T06:04:08.625Z,4.60
2017-12-14T06:06:36.158Z,4.25
2017-12-14T06:09:02.868Z,5.93
2017-12-14T06:11:30.539Z,6.30
2017-12-14T06:13:57.351Z,8.07
2017-12-14T06:16:26.263Z,6.50
2017-12-14T06:18:57.456Z,7.90
2017-12-14T06:21:24.227Z,7.12
2017-12-14T06:23:51.703Z,8.05
2017-12-14T06:26:18.760Z,10.18
2017-12-14T06:28:46.332Z,9.65
2017-12-14T06:31:14.191Z,10.27
2017-12-14T06:33:42.215Z,9.45
2017-12-14T06:36:11.734Z,7.97
2017-12-14T06:38:39.499Z,8.85
2017-12-14T06:41:07.479Z,8.48
2017-12-14T06:43:36.023Z,7.43
2017-12-14T06:46:02.916Z,7.03
2017-12-14T06:48:29.645Z,7.68
2017-12-14T06:50:56.347Z,7.12
2017-12-14T06:53:23.051Z,6.35
2017-12-14T06:55:49.735Z,6.37
2017-12-14T06:58:16.410Z,5.82
2017-12-14T07:00:43.112Z,7.10
2017-12-14T07:03:15.704Z,6.35
2017-12-14T07:05:42.406Z,5.70
2017-12-14T07:08:09.087Z,6.40
2017-12-14T07:10:35.793Z,6.00
2017-12-14T07:13:02.473Z,5.40
2017-12-14T07:15:29.180Z,6.60
2017-12-14T07:17:55.868Z,6.90
2017-12-14T07:20:22.575Z,6.00
2017-12-14T07:22:49.251Z,7.05
2017-12-14T07:25:15.955Z,8.00
2017-12-14T07:27:42.628Z,8.27
2017-12-14T07:30:09.301Z,9.23
2017-12-14T07:32:36.002Z,8.95
2017-12-14T07:35:02.684Z,8.13
2017-12-14T07:37:29.397Z,7.78
2017-12-14T07:39:56.076Z,8.93
2017-12-14T07:42:28.668Z,7.85
2017-12-14T07:45:01.292Z,8.00
2017-12-14T07:47:31.779Z,6.82
2017-12-14T07:49:58.454Z,6.45
2017-12-14T07:52:25.272Z,7.47
2017-12-14T07:54:51.960Z,7.95
2017-12-14T07:57:18.671Z,9.20
2017-12-14T07:59:45.352Z,7.87
2017-12-14T08:02:12.022Z,7.40
2017-12-14T08:04:38.944Z,8.32
2017-12-14T08:07:05.628Z,7.82
2017-12-14T08:09:32.338Z,8.75
2017-12-14T08:11:59.858Z,7.68
2017-12-14T08:14:27.075Z,6.53
2017-12-14T08:16:53.775Z,9.30
2017-12-14T08:19:20.500Z,7.78
2017-12-14T08:21:47.196Z,6.20
2017-12-14T08:24:13.905Z,8.05
2017-12-14T08:26:40.594Z,7.62
2017-12-14T08:29:07.295Z,6.43
2017-12-14T08:31:33.983Z,7.35
2017-12-14T08:34:00.664Z,5.80
2017-12-14T08:36:27.379Z,6.57
2017-12-14T08:38:54.066Z,7.05
2017-12-14T08:41:20.787Z,7.07
2017-12-14T08:43:47.485Z,11.30
2017-12-14T08:46:14.195Z,7.37
2017-12-14T08:48:40.875Z,11.05
2017-12-14T08:51:07.581Z,7.70
2017-12-14T08:53:34.259Z,9.38
2017-12-14T08:56:01.733Z,11.93
2017-12-14T08:58:28.430Z,11.48
2017-12-14T09:00:55.149Z,11.35
2017-12-14T09:03:21.823Z,9.98
2017-12-14T09:05:48.516Z,11.77
2017-12-14T09:08:15.230Z,11.95
2017-12-14T09:10:41.916Z,8.57
2017-12-14T09:13:08.667Z,9.30
2017-12-14T09:15:35.350Z,13.95
2017-12-14T09:18:02.061Z,8.43
2017-12-14T09:20:28.758Z,9.63
2017-12-14T09:22:55.461Z,8.75
2017-12-14T09:25:22.151Z,11.27
2017-12-14T09:27:48.863Z,11.65
2017-12-14T09:30:15.543Z,10.95
2017-12-14T09:32:42.257Z,8.30
2017-12-14T09:35:08.956Z,11.55
2017-12-14T09:37:35.792Z,8.13
2017-12-14T09:40:02.492Z,6.07
2017-12-14T09:42:29.172Z,7.37
2017-12-14T09:44:55.884Z,7.78
2017-12-14T09:47:22.565Z,4.65
2017-12-14T09:49:49.277Z,4.15
2017-12-14T09:52:15.956Z,4.05
2017-12-14T09:54:42.656Z,4.22
2017-12-14T09:57:09.567Z,9.20
2017-12-14T09:59:37.126Z,3.83
2017-12-14T10:02:04.092Z,6.12
2017-12-14T10:04:30.775Z,3.45
2017-12-14T10:06:57.456Z,4.90
2017-12-14T10:09:24.176Z,3.87
2017-12-14T10:11:50.890Z,4.90
2017-12-14T10:14:18.505Z,8.15
2017-12-14T10:16:45.224Z,3.92
2017-12-14T10:19:11.917Z,5.60
2017-12-14T10:21:38.626Z,4.18
2017-12-14T10:24:05.327Z,6.95
2017-12-14T10:26:32.387Z,3.30
2017-12-14T10:28:59.075Z,5.40
2017-12-14T10:31:25.771Z,5.37
2017-12-14T10:33:52.683Z,4.35
2017-12-14T10:36:19.387Z,9.38
2017-12-14T10:38:46.064Z,8.13
2017-12-14T10:41:12.743Z,6.15
2017-12-14T10:43:39.672Z,5.78
2017-12-14T10:46:06.355Z,4.05
2017-12-14T10:48:33.065Z,9.48
2017-12-14T10:51:00.166Z,3.50
2017-12-14T10:53:26.837Z,4.60
2017-12-14T10:55:53.904Z,4.03
2017-12-14T10:58:20.655Z,4.18
2017-12-14T11:00:53.222Z,8.55
2017-12-14T11:03:19.936Z,4.40
2017-12-14T11:05:53.308Z,8.13
2017-12-14T11:08:20.096Z,7.62
2017-12-14T11:10:46.883Z,7.82
2017-12-14T11:13:13.876Z,6.62
2017-12-14T11:15:41.127Z,5.57
2017-12-14T11:18:11.259Z,9.57
2017-12-14T11:20:39.711Z,8.98
2017-12-14T11:23:08.870Z,7.28
2017-12-14T11:25:38.205Z,3.92
2017-12-14T11:28:04.937Z,6.18
2017-12-14T11:30:32.718Z,3.87
2017-12-14T11:33:03.859Z,7.15
2017-12-14T11:35:35.925Z,6.57
2017-12-14T11:40:39.396Z,6.62
2017-12-14T11:43:07.642Z,5.50
2017-12-14T11:45:36.212Z,7.07
2017-12-14T11:48:05.092Z,8.20
2017-12-14T11:50:32.644Z,7.07
2017-12-14T11:52:59.597Z,8.07
2017-12-14T11:55:27.106Z,8.73
2017-12-14T11:57:53.855Z,6.85
2017-12-14T12:00:22.731Z,9.15
2017-12-14T12:02:52.882Z,4.15
2017-12-14T12:05:20.828Z,4.45
2017-12-14T12:07:47.623Z,2.40
2017-12-14T12:10:15.307Z,3.50
2017-12-14T12:15:17.435Z,6.57
2017-12-14T12:17:44.155Z,14.80
2017-12-14T12:20:14.330Z,28.70
2017-12-14T12:22:45.680Z,33.65
2017-12-14T12:25:13.987Z,26.85
2017-12-14T12:27:43.596Z,14.70
2017-12-14T12:30:13.527Z,6.12
2017-12-14T12:32:41.751Z,5.93
2017-12-14T12:35:09.384Z,3.85
2017-12-14T12:37:38.367Z,2.62
2017-12-14T12:40:05.746Z,1.60
2017-12-14T12:42:33.331Z,1.95
2017-12-14T12:45:02.698Z,2.47
2017-12-14T12:47:29.408Z,1.95
2017-12-14T12:49:57.799Z,2.45
2017-12-14T12:52:24.596Z,3.55
2017-12-14T12:54:51.952Z,3.80
2017-12-14T12:57:23.053Z,2.80
2017-12-14T12:59:51.088Z,3.80
2017-12-14T13:02:17.779Z,3.67
2017-12-14T13:04:45.320Z,2.90
2017-12-14T13:07:12.896Z,4.53
2017-12-14T13:09:41.142Z,3.15
2017-12-14T13:12:08.746Z,8.07
2017-12-14T13:14:35.495Z,3.00
2017-12-14T13:17:04.129Z,4.70
2017-12-14T13:19:30.818Z,5.10
2017-12-14T13:21:57.535Z,3.60
2017-12-14T13:24:24.216Z,3.45
2017-12-14T13:26:50.929Z,3.03
2017-12-14T13:29:17.621Z,3.42
2017-12-14T13:31:44.326Z,5.62
2017-12-14T13:34:11.938Z,3.33
2017-12-14T13:36:38.656Z,3.92
2017-12-14T13:39:05.339Z,3.85
2017-12-14T13:41:32.056Z,3.70
2017-12-14T13:46:40.216Z,3.85
2017-12-14T13:49:06.961Z,3.25
2017-12-14T13:51:33.739Z,2.83
2017-12-14T13:54:00.461Z,2.90
2017-12-14T13:56:27.156Z,5.57
2017-12-14T13:58:53.885Z,6.68
2017-12-14T14:01:21.308Z,3.00
2017-12-14T14:03:48.021Z,5.28
2017-12-14T14:06:14.719Z,5.95
2017-12-14T14:08:41.424Z,6.97
2017-12-14T14:11:10.767Z,3.12
2017-12-14T14:13:37.481Z,4.15
2017-12-14T14:16:04.167Z,8.20
2017-12-14T14:18:30.887Z,4.15
2017-12-14T14:20:57.580Z,3.55
2017-12-14T14:23:24.259Z,2.40
2017-12-14T14:25:51.195Z,4.65
2017-12-14T14:28:17.879Z,3.30
2017-12-14T14:30:44.589Z,3.10
2017-12-14T14:33:11.288Z,2.15
2017-12-14T14:35:38.000Z,3.55
2017-12-14T14:38:04.688Z,2.45
2017-12-14T14:40:31.397Z,2.90
2017-12-14T14:42:58.090Z,5.30
2017-12-14T14:45:24.796Z,3.70
2017-12-14T14:47:51.484Z,2.47
2017-12-14T14:50:18.187Z,5.37
2017-12-14T14:52:44.867Z,3.70
2017-12-14T14:55:11.568Z,5.57
2017-12-14T14:57:38.267Z,2.20
2017-12-14T15:00:04.944Z,2.53
2017-12-14T15:02:31.643Z,2.40
2017-12-14T15:04:58.324Z,4.20
2017-12-14T15:07:25.025Z,2.62
2017-12-14T15:09:51.716Z,4.32
2017-12-14T15:12:19.649Z,2.97
2017-12-14T15:14:46.332Z,2.42
2017-12-14T15:17:13.035Z,3.20
2017-12-14T15:19:39.723Z,3.47
2017-12-14T15:22:06.435Z,2.40
2017-12-14T15:24:33.122Z,1.80
2017-12-14T15:26:59.800Z,3.28
2017-12-14T15:29:26.520Z,3.90
2017-12-14T15:31:53.199Z,3.90
2017-12-14T15:34:19.916Z,3.00
2017-12-14T15:36:46.621Z,2.30
2017-12-14T15:39:13.323Z,2.08
2017-12-14T15:41:40.017Z,4.85
2017-12-14T15:44:06.727Z,2.30
2017-12-14T15:46:33.407Z,3.12
2017-12-14T15:49:00.112Z,2.12
2017-12-14T15:51:26.791Z,3.08
2017-12-14T15:53:53.500Z,5.25
2017-12-14T15:56:20.183Z,4.82
2017-12-14T15:58:47.919Z,7.03
2017-12-14T16:01:15.149Z,4.53
2017-12-14T16:03:42.616Z,1.87
2017-12-14T16:06:09.295Z,5.30
2017-12-14T16:08:36.008Z,2.00
2017-12-14T16:11:02.691Z,4.90
2017-12-14T16:13:29.403Z,4.20
2017-12-14T16:15:56.085Z,4.72
2017-12-14T16:18:22.795Z,5.15
2017-12-14T16:20:49.475Z,3.67
2017-12-14T16:23:16.168Z,1.90
2017-12-14T16:25:43.817Z,5.65
2017-12-14T16:28:10.500Z,8.70
2017-12-14T16:30:37.208Z,3.72
2017-12-14T16:33:05.000Z,2.25
2017-12-14T16:35:32.841Z,3.28
2017-12-14T16:37:59.523Z,3.20
2017-12-14T16:40:26.226Z,3.92
2017-12-14T16:42:52.921Z,3.85
2017-12-14T16:45:19.664Z,3.75
2017-12-14T16:47:46.339Z,5.68
2017-12-14T16:50:13.061Z,5.03
2017-12-14T16:52:39.749Z,3.45
2017-12-14T16:55:06.423Z,3.12
2017-12-14T16:57:33.367Z,4.00
2017-12-14T17:00:00.062Z,2.95
2017-12-14T17:02:26.821Z,6.93
2017-12-14T17:04:54.439Z,4.68
2017-12-14T17:07:21.366Z,5.55
2017-12-14T17:09:48.280Z,3.08
2017-12-14T17:12:15.228Z,2.65
2017-12-14T17:14:42.275Z,3.47
2017-12-14T17:17:08.983Z,4.10
2017-12-14T17:19:36.034Z,4.05
2017-12-14T17:22:02.747Z,2.58
2017-12-14T17:24:29.423Z,6.55
2017-12-14T17:26:56.186Z,4.22
2017-12-14T17:29:22.955Z,4.50
2017-12-14T17:31:49.633Z,3.65
2017-12-14T17:34:16.335Z,3.08
2017-12-14T17:36:43.016Z,3.00
2017-12-14T17:39:09.719Z,5.35
2017-12-14T17:41:36.391Z,3.45
2017-12-14T17:44:03.091Z,3.55
2017-12-14T17:46:29.782Z,4.78
2017-12-14T17:48:56.503Z,5.60
2017-12-14T17:51:23.181Z,6.15
2017-12-14T17:53:49.867Z,5.68
2017-12-14T17:56:16.608Z,4.18
2017-12-14T17:58:43.287Z,4.45
2017-12-14T18:01:10.061Z,5.62
2017-12-14T18:03:37.610Z,8.13
2017-12-14T18:06:04.316Z,5.30
2017-12-14T18:08:31.000Z,6.82
2017-12-14T18:10:57.940Z,6.90
2017-12-14T18:13:26.761Z,5.20
2017-12-14T18:15:53.898Z,5.97
2017-12-14T18:18:22.954Z,6.12
2017-12-14T18:20:50.656Z,6.12
2017-12-14T18:23:18.338Z,5.65
2017-12-14T18:25:48.628Z,6.37
2017-12-14T18:28:15.343Z,8.23
2017-12-14T18:30:44.835Z,7.18
2017-12-14T18:33:12.970Z,10.90
2017-12-14T18:35:44.766Z,7.25
2017-12-14T18:40:45.624Z,6.85
2017-12-14T18:43:17.504Z,7.90
2017-12-14T18:45:50.272Z,8.55
2017-12-14T18:48:21.151Z,8.93
2017-12-14T18:50:59.842Z,9.30
2017-12-14T18:56:00.718Z,10.95
2017-12-14T18:58:28.870Z,8.70
2017-12-14T19:00:56.761Z,12.00
2017-12-14T19:03:24.106Z,7.60
2017-12-14T19:05:51.848Z,6.85
2017-12-14T19:08:29.299Z,8.20
2017-12-14T19:11:00.012Z,8.57
2017-12-14T19:13:27.862Z,6.95
2017-12-14T19:15:57.431Z,8.18
2017-12-14T19:18:25.057Z,9.32
2017-12-14T19:20:52.131Z,9.90
2017-12-14T19:23:21.154Z,8.23
2017-12-14T19:25:49.719Z,9.18
2017-12-14T19:28:16.914Z,7.30
2017-12-14T19:30:44.050Z,8.30
2017-12-14T19:33:15.362Z,6.75
2017-12-14T19:35:44.131Z,7.20
2017-12-14T19:38:12.303Z,7.80
2017-12-14T19:40:39.966Z,7.65
2017-12-14T19:43:08.962Z,7.30
2017-12-14T19:45:44.356Z,8.80
2017-12-14T19:48:14.284Z,10.40
2017-12-14T19:50:41.962Z,9.18
2017-12-14T19:53:08.703Z,7.60
2017-12-14T19:55:43.216Z,7.40
2017-12-14T19:58:09.976Z,8.68
2017-12-14T20:00:38.881Z,8.68
2017-12-14T20:03:07.926Z,8.30
2017-12-14T20:05:34.680Z,4.65
2017-12-14T20:08:09.544Z,5.93
2017-12-14T20:10:39.048Z,6.62
2017-12-14T20:13:07.697Z,5.68
2017-12-14T20:15:34.647Z,5.25
2017-12-14T20:18:04.544Z,4.95
2017-12-14T20:20:33.040Z,5.75
2017-12-14T20:23:00.190Z,5.57
2017-12-14T20:25:29.043Z,4.70
2017-12-14T20:27:55.766Z,6.20
2017-12-14T20:30:23.773Z,7.75
2017-12-14T20:32:50.458Z,6.37
2017-12-14T20:35:17.684Z,5.43
2017-12-14T20:37:44.622Z,7.05
2017-12-14T20:40:11.395Z,6.37
2017-12-14T20:42:40.600Z,5.37
2017-12-14T20:45:07.655Z,4.78
2017-12-14T20:47:34.421Z,5.37
2017-12-14T20:50:05.489Z,6.85
2017-12-14T20:52:32.436Z,5.00
2017-12-14T20:55:00.246Z,4.03
2017-12-14T20:57:28.525Z,4.20
2017-12-14T20:59:55.880Z,5.05
2017-12-14T21:02:22.694Z,4.53
2017-12-14T21:04:49.686Z,6.12
2017-12-14T21:07:22.944Z,4.93
2017-12-14T21:09:51.462Z,4.40
2017-12-14T21:12:18.752Z,6.15
2017-12-14T21:14:45.894Z,5.78
2017-12-14T21:17:25.052Z,7.70
2017-12-14T21:20:03.814Z,5.78
2017-12-14T21:22:33.640Z,4.97
2017-12-14T21:25:02.532Z,6.40
2017-12-14T21:27:29.667Z,5.00
2017-12-14T21:30:00.502Z,7.03
2017-12-14T21:32:28.358Z,6.37
2017-12-14T21:34:58.004Z,5.50
2017-12-14T21:37:30.183Z,6.40
2017-12-14T21:39:57.958Z,5.72
2017-12-14T21:42:29.656Z,7.72
2017-12-14T21:45:06.816Z,4.87
2017-12-14T21:47:38.613Z,5.45
2017-12-14T21:50:07.126Z,4.78
2017-12-14T21:52:33.867Z,5.87
2017-12-14T21:55:02.015Z,5.62
2017-12-14T21:57:28.782Z,5.07
2017-12-14T22:02:30.364Z,5.72
2017-12-14T22:05:01.403Z,5.35
2017-12-14T22:07:28.495Z,4.80
2017-12-14T22:09:55.316Z,4.70
2017-12-14T22:12:26.452Z,4.85
2017-12-14T22:14:55.718Z,5.55
2017-12-14T22:17:23.893Z,5.85
2017-12-14T22:19:51.101Z,6.15
2017-12-14T22:22:18.535Z,5.43
2017-12-14T22:24:45.988Z,5.78
2017-12-14T22:27:14.916Z,4.30
2017-12-14T22:29:41.896Z,4.95
2017-12-14T22:32:08.704Z,4.28
2017-12-14T22:34:36.013Z,5.47
2017-12-14T22:37:03.484Z,4.50
2017-12-14T22:39:30.511Z,4.15
2017-12-14T22:42:00.260Z,5.43
2017-12-14T22:44:29.156Z,5.65
2017-12-14T22:46:56.308Z,3.65
2017-12-14T22:49:23.151Z,4.50
2017-12-14T22:51:50.323Z,3.30
